Flugplatz Kassel-Calden

Bericht für EDVK

vom 11.05. um 17:50 UTC

Wind 5 kt aus 310°

Sichtweite 10 km oder mehr

schwacher Regen

aufgelockert bewölkt in 1100 ft

aufgebrochene Bewölkung in 1400 ft

aufgebrochene Bewölkung in 1900 ft

Temperatur 14.0°C

Taupunkt 13.0°C

Luftfeuchtigkeit 94%

Luftdruck 1007 hPa

EDVK 111750Z 31005KT 9999 -RA SCT011 BKN014 BKN019 14/13 Q1007

Prognose für EDVK

vom 11.05. um 17:00 UTC

Zwischen 18:00 UTC und 03:00 UTC

Wind 5 kt aus 310°

Sichtweite 10 km oder mehr

aufgelockert bewölkt in 800 ft

aufgebrochene Bewölkung in 1500 ft


Zwischen 18:00 UTC und 21:00 UTC zeitweise

Regen

aufgebrochene Bewölkung in 800 ft


Zwischen 21:00 UTC und 03:00 UTC zeitweise

aufgebrochene Bewölkung in 500 ft

TAF EDVK 111700Z 1118/1203 31005KT 9999 SCT008 BKN015 TEMPO 1118/1121 RA BKN008 TEMPO 1121/1203 BKN005
Impressum